sensor_id;sensor_type;location;lat;lon;timestamp;P1;durP1;ratioP1;P2;durP2;ratioP2
24483;SDS011;12643;51.620;7.548;2023-09-19T00:00:55;5.15;;;2.95;;
24483;SDS011;12643;51.620;7.548;2023-09-19T00:03:23;4.78;;;2.92;;
24483;SDS011;12643;51.620;7.548;2023-09-19T00:05:53;13.02;;;2.95;;
24483;SDS011;12643;51.620;7.548;2023-09-19T00:08:21;7.80;;;2.97;;
24483;SDS011;12643;51.620;7.548;2023-09-19T00:10:48;6.97;;;2.88;;
24483;SDS011;12643;51.620;7.548;2023-09-19T00:13:16;10.68;;;3.45;;
24483;SDS011;12643;51.620;7.548;2023-09-19T00:15:45;11.40;;;3.42;;
24483;SDS011;12643;51.620;7.548;2023-09-19T00:18:20;7.65;;;3.25;;
24483;SDS011;12643;51.620;7.548;2023-09-19T00:20:48;8.35;;;3.20;;
24483;SDS011;12643;51.620;7.548;2023-09-19T00:23:18;8.25;;;3.05;;
24483;SDS011;12643;51.620;7.548;2023-09-19T00:25:46;9.18;;;2.92;;
24483;SDS011;12643;51.620;7.548;2023-09-19T00:28:13;12.55;;;2.75;;
24483;SDS011;12643;51.620;7.548;2023-09-19T00:30:42;10.88;;;3.15;;
24483;SDS011;12643;51.620;7.548;2023-09-19T00:33:10;10.25;;;2.90;;
24483;SDS011;12643;51.620;7.548;2023-09-19T00:35:46;9.95;;;3.08;;
24483;SDS011;12643;51.620;7.548;2023-09-19T00:38:14;7.82;;;2.67;;
24483;SDS011;12643;51.620;7.548;2023-09-19T00:40:44;10.13;;;3.05;;
24483;SDS011;12643;51.620;7.548;2023-09-19T00:43:12;8.15;;;2.95;;
24483;SDS011;12643;51.620;7.548;2023-09-19T00:45:42;10.93;;;2.78;;
24483;SDS011;12643;51.620;7.548;2023-09-19T00:48:13;12.52;;;2.90;;
24483;SDS011;12643;51.620;7.548;2023-09-19T00:50:42;10.07;;;2.78;;
24483;SDS011;12643;51.620;7.548;2023-09-19T00:53:13;13.15;;;3.03;;
24483;SDS011;12643;51.620;7.548;2023-09-19T00:55:45;7.60;;;2.70;;
24483;SDS011;12643;51.620;7.548;2023-09-19T00:58:13;7.30;;;3.05;;
24483;SDS011;12643;51.620;7.548;2023-09-19T01:00:42;11.00;;;2.92;;
24483;SDS011;12643;51.620;7.548;2023-09-19T01:03:11;10.05;;;3.25;;
24483;SDS011;12643;51.620;7.548;2023-09-19T01:05:39;9.18;;;2.88;;
24483;SDS011;12643;51.620;7.548;2023-09-19T01:08:07;9.38;;;2.28;;
24483;SDS011;12643;51.620;7.548;2023-09-19T01:10:36;15.18;;;3.33;;
24483;SDS011;12643;51.620;7.548;2023-09-19T01:13:13;10.93;;;2.65;;
24483;SDS011;12643;51.620;7.548;2023-09-19T01:15:49;13.05;;;3.10;;
24483;SDS011;12643;51.620;7.548;2023-09-19T01:18:27;13.82;;;3.90;;
24483;SDS011;12643;51.620;7.548;2023-09-19T01:21:01;16.15;;;2.90;;
24483;SDS011;12643;51.620;7.548;2023-09-19T01:23:40;14.07;;;3.88;;
24483;SDS011;12643;51.620;7.548;2023-09-19T01:26:42;11.93;;;3.22;;
24483;SDS011;12643;51.620;7.548;2023-09-19T01:29:26;17.15;;;3.88;;
24483;SDS011;12643;51.620;7.548;2023-09-19T01:32:06;11.48;;;3.03;;
24483;SDS011;12643;51.620;7.548;2023-09-19T01:34:45;13.98;;;3.08;;
24483;SDS011;12643;51.620;7.548;2023-09-19T01:37:14;12.27;;;2.55;;
24483;SDS011;12643;51.620;7.548;2023-09-19T01:39:45;13.75;;;3.28;;
24483;SDS011;12643;51.620;7.548;2023-09-19T01:42:18;11.95;;;2.83;;
24483;SDS011;12643;51.620;7.548;2023-09-19T01:45:03;10.48;;;4.20;;
24483;SDS011;12643;51.620;7.548;2023-09-19T01:47:38;15.45;;;3.72;;
24483;SDS011;12643;51.620;7.548;2023-09-19T01:50:13;13.20;;;4.30;;
24483;SDS011;12643;51.620;7.548;2023-09-19T01:52:53;13.25;;;3.65;;
24483;SDS011;12643;51.620;7.548;2023-09-19T01:55:26;11.25;;;3.47;;
24483;SDS011;12643;51.620;7.548;2023-09-19T01:57:58;14.27;;;2.70;;
24483;SDS011;12643;51.620;7.548;2023-09-19T02:00:36;11.02;;;3.30;;
24483;SDS011;12643;51.620;7.548;2023-09-19T02:03:08;20.15;;;4.20;;
24483;SDS011;12643;51.620;7.548;2023-09-19T02:05:37;17.73;;;3.90;;
24483;SDS011;12643;51.620;7.548;2023-09-19T02:08:05;17.58;;;4.05;;
24483;SDS011;12643;51.620;7.548;2023-09-19T02:10:33;11.20;;;3.50;;
24483;SDS011;12643;51.620;7.548;2023-09-19T02:13:01;14.43;;;4.25;;
24483;SDS011;12643;51.620;7.548;2023-09-19T02:15:31;13.25;;;3.65;;
24483;SDS011;12643;51.620;7.548;2023-09-19T02:17:59;19.48;;;3.85;;
24483;SDS011;12643;51.620;7.548;2023-09-19T02:20:29;14.60;;;3.47;;
24483;SDS011;12643;51.620;7.548;2023-09-19T02:22:58;15.30;;;3.13;;
24483;SDS011;12643;51.620;7.548;2023-09-19T02:25:28;14.75;;;3.58;;
24483;SDS011;12643;51.620;7.548;2023-09-19T02:27:56;12.98;;;3.22;;
24483;SDS011;12643;51.620;7.548;2023-09-19T02:30:24;12.95;;;3.63;;
24483;SDS011;12643;51.620;7.548;2023-09-19T02:32:52;12.30;;;3.65;;
24483;SDS011;12643;51.620;7.548;2023-09-19T02:35:20;17.52;;;4.38;;
24483;SDS011;12643;51.620;7.548;2023-09-19T02:37:50;21.40;;;4.15;;
24483;SDS011;12643;51.620;7.548;2023-09-19T02:40:18;21.63;;;4.63;;
24483;SDS011;12643;51.620;7.548;2023-09-19T02:42:46;16.60;;;3.35;;
24483;SDS011;12643;51.620;7.548;2023-09-19T02:45:15;15.27;;;4.68;;
24483;SDS011;12643;51.620;7.548;2023-09-19T02:47:46;21.98;;;4.70;;
24483;SDS011;12643;51.620;7.548;2023-09-19T02:50:15;17.95;;;4.45;;
24483;SDS011;12643;51.620;7.548;2023-09-19T02:52:43;14.68;;;4.65;;
24483;SDS011;12643;51.620;7.548;2023-09-19T02:55:14;15.15;;;4.13;;
24483;SDS011;12643;51.620;7.548;2023-09-19T02:57:47;14.13;;;4.03;;
24483;SDS011;12643;51.620;7.548;2023-09-19T03:00:16;13.27;;;4.10;;
24483;SDS011;12643;51.620;7.548;2023-09-19T03:02:46;16.38;;;4.70;;
24483;SDS011;12643;51.620;7.548;2023-09-19T03:05:14;13.98;;;4.28;;
24483;SDS011;12643;51.620;7.548;2023-09-19T03:07:43;16.67;;;3.03;;
24483;SDS011;12643;51.620;7.548;2023-09-19T03:10:17;14.15;;;3.25;;
24483;SDS011;12643;51.620;7.548;2023-09-19T03:12:45;15.77;;;4.10;;
24483;SDS011;12643;51.620;7.548;2023-09-19T03:15:14;11.65;;;3.20;;
24483;SDS011;12643;51.620;7.548;2023-09-19T03:17:42;12.07;;;3.63;;
24483;SDS011;12643;51.620;7.548;2023-09-19T03:20:11;15.73;;;3.30;;
24483;SDS011;12643;51.620;7.548;2023-09-19T03:22:42;17.70;;;3.85;;
24483;SDS011;12643;51.620;7.548;2023-09-19T03:25:10;13.43;;;3.55;;
24483;SDS011;12643;51.620;7.548;2023-09-19T03:27:40;14.15;;;3.88;;
24483;SDS011;12643;51.620;7.548;2023-09-19T03:30:08;13.73;;;3.75;;
24483;SDS011;12643;51.620;7.548;2023-09-19T03:32:43;14.27;;;4.17;;
24483;SDS011;12643;51.620;7.548;2023-09-19T03:35:12;18.92;;;5.07;;
24483;SDS011;12643;51.620;7.548;2023-09-19T03:37:41;15.38;;;4.90;;
24483;SDS011;12643;51.620;7.548;2023-09-19T03:40:09;17.92;;;4.13;;
24483;SDS011;12643;51.620;7.548;2023-09-19T03:42:37;13.93;;;4.15;;
24483;SDS011;12643;51.620;7.548;2023-09-19T03:45:07;14.98;;;4.50;;
24483;SDS011;12643;51.620;7.548;2023-09-19T03:47:37;13.55;;;3.90;;
24483;SDS011;12643;51.620;7.548;2023-09-19T03:50:06;12.27;;;3.80;;
24483;SDS011;12643;51.620;7.548;2023-09-19T03:52:36;13.70;;;3.40;;
24483;SDS011;12643;51.620;7.548;2023-09-19T03:55:04;14.23;;;4.25;;
24483;SDS011;12643;51.620;7.548;2023-09-19T03:57:32;17.23;;;4.38;;
24483;SDS011;12643;51.620;7.548;2023-09-19T04:00:03;19.75;;;4.50;;
24483;SDS011;12643;51.620;7.548;2023-09-19T04:02:37;17.00;;;3.70;;
24483;SDS011;12643;51.620;7.548;2023-09-19T04:05:05;17.38;;;4.20;;
24483;SDS011;12643;51.620;7.548;2023-09-19T04:07:33;17.42;;;4.78;;
24483;SDS011;12643;51.620;7.548;2023-09-19T04:10:01;11.35;;;3.88;;
24483;SDS011;12643;51.620;7.548;2023-09-19T04:12:30;12.43;;;3.55;;
24483;SDS011;12643;51.620;7.548;2023-09-19T04:14:58;15.15;;;4.07;;
24483;SDS011;12643;51.620;7.548;2023-09-19T04:17:27;18.90;;;4.40;;
24483;SDS011;12643;51.620;7.548;2023-09-19T04:19:55;19.00;;;3.65;;
24483;SDS011;12643;51.620;7.548;2023-09-19T04:22:23;17.55;;;4.10;;
24483;SDS011;12643;51.620;7.548;2023-09-19T04:24:50;17.88;;;3.67;;
24483;SDS011;12643;51.620;7.548;2023-09-19T04:27:18;13.23;;;2.65;;
24483;SDS011;12643;51.620;7.548;2023-09-19T04:29:46;12.23;;;3.10;;
24483;SDS011;12643;51.620;7.548;2023-09-19T04:32:16;11.05;;;2.83;;
24483;SDS011;12643;51.620;7.548;2023-09-19T04:34:45;12.27;;;3.17;;
24483;SDS011;12643;51.620;7.548;2023-09-19T04:37:15;11.30;;;3.38;;
24483;SDS011;12643;51.620;7.548;2023-09-19T04:39:43;17.75;;;3.88;;
24483;SDS011;12643;51.620;7.548;2023-09-19T04:42:12;15.30;;;3.25;;
24483;SDS011;12643;51.620;7.548;2023-09-19T04:44:40;12.27;;;2.80;;
24483;SDS011;12643;51.620;7.548;2023-09-19T04:47:08;13.38;;;3.22;;
24483;SDS011;12643;51.620;7.548;2023-09-19T04:49:37;9.88;;;2.60;;
24483;SDS011;12643;51.620;7.548;2023-09-19T04:52:08;12.05;;;3.35;;
24483;SDS011;12643;51.620;7.548;2023-09-19T04:54:36;13.32;;;2.50;;
24483;SDS011;12643;51.620;7.548;2023-09-19T04:57:04;10.57;;;2.90;;
24483;SDS011;12643;51.620;7.548;2023-09-19T04:59:32;12.20;;;2.63;;
24483;SDS011;12643;51.620;7.548;2023-09-19T05:02:00;11.65;;;2.95;;
24483;SDS011;12643;51.620;7.548;2023-09-19T05:04:28;10.43;;;3.28;;
24483;SDS011;12643;51.620;7.548;2023-09-19T05:06:55;14.30;;;2.70;;
24483;SDS011;12643;51.620;7.548;2023-09-19T05:09:25;17.65;;;3.00;;
24483;SDS011;12643;51.620;7.548;2023-09-19T05:11:52;13.30;;;2.90;;
24483;SDS011;12643;51.620;7.548;2023-09-19T05:14:21;16.23;;;3.05;;
24483;SDS011;12643;51.620;7.548;2023-09-19T05:16:50;13.70;;;2.42;;
24483;SDS011;12643;51.620;7.548;2023-09-19T05:19:18;15.20;;;3.03;;
24483;SDS011;12643;51.620;7.548;2023-09-19T05:21:46;19.90;;;3.10;;
24483;SDS011;12643;51.620;7.548;2023-09-19T05:24:14;10.23;;;2.85;;
24483;SDS011;12643;51.620;7.548;2023-09-19T05:26:43;11.98;;;2.92;;
24483;SDS011;12643;51.620;7.548;2023-09-19T05:29:11;23.38;;;3.83;;
24483;SDS011;12643;51.620;7.548;2023-09-19T05:31:42;13.23;;;2.93;;
24483;SDS011;12643;51.620;7.548;2023-09-19T05:34:10;13.98;;;3.25;;
24483;SDS011;12643;51.620;7.548;2023-09-19T05:36:37;10.25;;;2.65;;
24483;SDS011;12643;51.620;7.548;2023-09-19T05:39:05;12.95;;;3.38;;
24483;SDS011;12643;51.620;7.548;2023-09-19T05:41:36;13.55;;;3.53;;
24483;SDS011;12643;51.620;7.548;2023-09-19T05:44:12;15.52;;;3.20;;
24483;SDS011;12643;51.620;7.548;2023-09-19T05:46:40;14.02;;;3.17;;
24483;SDS011;12643;51.620;7.548;2023-09-19T05:49:08;13.45;;;3.50;;
24483;SDS011;12643;51.620;7.548;2023-09-19T05:51:36;12.35;;;2.95;;
24483;SDS011;12643;51.620;7.548;2023-09-19T05:54:03;12.80;;;2.55;;
24483;SDS011;12643;51.620;7.548;2023-09-19T05:56:31;19.73;;;2.83;;
24483;SDS011;12643;51.620;7.548;2023-09-19T05:58:59;9.32;;;2.63;;
24483;SDS011;12643;51.620;7.548;2023-09-19T06:01:29;16.05;;;2.83;;
24483;SDS011;12643;51.620;7.548;2023-09-19T06:03:58;15.07;;;3.15;;
24483;SDS011;12643;51.620;7.548;2023-09-19T06:06:25;17.65;;;3.28;;
24483;SDS011;12643;51.620;7.548;2023-09-19T06:08:53;17.90;;;3.88;;
24483;SDS011;12643;51.620;7.548;2023-09-19T06:11:22;14.68;;;2.83;;
24483;SDS011;12643;51.620;7.548;2023-09-19T06:13:52;16.92;;;3.38;;
24483;SDS011;12643;51.620;7.548;2023-09-19T06:16:19;14.48;;;3.30;;
24483;SDS011;12643;51.620;7.548;2023-09-19T06:18:49;13.13;;;3.22;;
24483;SDS011;12643;51.620;7.548;2023-09-19T06:21:18;19.65;;;3.53;;
24483;SDS011;12643;51.620;7.548;2023-09-19T06:23:46;15.57;;;3.08;;
24483;SDS011;12643;51.620;7.548;2023-09-19T06:26:14;16.23;;;3.72;;
24483;SDS011;12643;51.620;7.548;2023-09-19T06:28:41;10.07;;;2.50;;
24483;SDS011;12643;51.620;7.548;2023-09-19T06:31:09;13.38;;;3.40;;
24483;SDS011;12643;51.620;7.548;2023-09-19T06:33:37;10.57;;;3.25;;
24483;SDS011;12643;51.620;7.548;2023-09-19T06:36:07;13.73;;;3.00;;
24483;SDS011;12643;51.620;7.548;2023-09-19T06:38:36;11.30;;;3.00;;
24483;SDS011;12643;51.620;7.548;2023-09-19T06:41:04;14.95;;;3.28;;
24483;SDS011;12643;51.620;7.548;2023-09-19T06:43:32;12.65;;;2.90;;
24483;SDS011;12643;51.620;7.548;2023-09-19T06:46:01;16.38;;;3.42;;
24483;SDS011;12643;51.620;7.548;2023-09-19T06:48:29;13.60;;;3.15;;
24483;SDS011;12643;51.620;7.548;2023-09-19T06:50:59;15.80;;;3.83;;
24483;SDS011;12643;51.620;7.548;2023-09-19T06:53:32;15.27;;;3.35;;
24483;SDS011;12643;51.620;7.548;2023-09-19T06:56:04;14.90;;;3.00;;
24483;SDS011;12643;51.620;7.548;2023-09-19T06:58:32;9.85;;;2.67;;
24483;SDS011;12643;51.620;7.548;2023-09-19T07:01:00;11.13;;;2.63;;
24483;SDS011;12643;51.620;7.548;2023-09-19T07:03:29;12.50;;;3.20;;
24483;SDS011;12643;51.620;7.548;2023-09-19T07:05:59;13.02;;;3.25;;
24483;SDS011;12643;51.620;7.548;2023-09-19T07:08:27;13.23;;;2.85;;
24483;SDS011;12643;51.620;7.548;2023-09-19T07:10:57;14.60;;;3.85;;
24483;SDS011;12643;51.620;7.548;2023-09-19T07:13:25;14.93;;;3.30;;
24483;SDS011;12643;51.620;7.548;2023-09-19T07:15:53;13.65;;;3.88;;
24483;SDS011;12643;51.620;7.548;2023-09-19T07:18:22;9.93;;;2.67;;
24483;SDS011;12643;51.620;7.548;2023-09-19T07:20:50;16.33;;;3.10;;
24483;SDS011;12643;51.620;7.548;2023-09-19T07:23:26;16.25;;;3.05;;
24483;SDS011;12643;51.620;7.548;2023-09-19T07:25:57;20.40;;;3.80;;
24483;SDS011;12643;51.620;7.548;2023-09-19T07:28:25;10.50;;;2.80;;
24483;SDS011;12643;51.620;7.548;2023-09-19T07:30:53;14.05;;;2.97;;
24483;SDS011;12643;51.620;7.548;2023-09-19T07:33:22;10.50;;;2.88;;
24483;SDS011;12643;51.620;7.548;2023-09-19T07:35:54;13.07;;;2.90;;
24483;SDS011;12643;51.620;7.548;2023-09-19T07:38:24;11.85;;;3.22;;
24483;SDS011;12643;51.620;7.548;2023-09-19T07:40:52;10.63;;;3.22;;
24483;SDS011;12643;51.620;7.548;2023-09-19T07:43:29;14.68;;;2.92;;
24483;SDS011;12643;51.620;7.548;2023-09-19T07:45:58;16.40;;;2.42;;
24483;SDS011;12643;51.620;7.548;2023-09-19T07:48:31;15.73;;;3.72;;
24483;SDS011;12643;51.620;7.548;2023-09-19T07:51:01;13.68;;;2.92;;
24483;SDS011;12643;51.620;7.548;2023-09-19T07:53:30;14.60;;;3.25;;
24483;SDS011;12643;51.620;7.548;2023-09-19T07:56:03;12.57;;;3.35;;
24483;SDS011;12643;51.620;7.548;2023-09-19T07:58:33;12.50;;;3.28;;
24483;SDS011;12643;51.620;7.548;2023-09-19T08:01:03;13.80;;;2.88;;
24483;SDS011;12643;51.620;7.548;2023-09-19T08:03:34;14.35;;;3.67;;
24483;SDS011;12643;51.620;7.548;2023-09-19T08:06:13;12.98;;;2.97;;
24483;SDS011;12643;51.620;7.548;2023-09-19T08:08:42;13.88;;;3.10;;
24483;SDS011;12643;51.620;7.548;2023-09-19T08:11:10;20.38;;;3.65;;
24483;SDS011;12643;51.620;7.548;2023-09-19T08:13:40;11.02;;;3.22;;
24483;SDS011;12643;51.620;7.548;2023-09-19T08:16:09;13.70;;;3.05;;
24483;SDS011;12643;51.620;7.548;2023-09-19T08:18:39;23.77;;;3.67;;
24483;SDS011;12643;51.620;7.548;2023-09-19T08:21:08;13.35;;;3.08;;
24483;SDS011;12643;51.620;7.548;2023-09-19T08:23:38;12.90;;;4.13;;
24483;SDS011;12643;51.620;7.548;2023-09-19T08:26:06;13.05;;;3.17;;
24483;SDS011;12643;51.620;7.548;2023-09-19T08:28:34;18.95;;;4.32;;
24483;SDS011;12643;51.620;7.548;2023-09-19T08:31:04;12.43;;;3.30;;
24483;SDS011;12643;51.620;7.548;2023-09-19T08:33:35;13.85;;;3.08;;
24483;SDS011;12643;51.620;7.548;2023-09-19T08:36:03;15.88;;;2.83;;
24483;SDS011;12643;51.620;7.548;2023-09-19T08:38:34;9.60;;;2.95;;
24483;SDS011;12643;51.620;7.548;2023-09-19T08:41:05;17.70;;;3.40;;
24483;SDS011;12643;51.620;7.548;2023-09-19T08:43:34;20.95;;;3.67;;
24483;SDS011;12643;51.620;7.548;2023-09-19T08:46:06;11.15;;;2.88;;
24483;SDS011;12643;51.620;7.548;2023-09-19T08:48:39;16.48;;;3.65;;
24483;SDS011;12643;51.620;7.548;2023-09-19T08:51:17;16.75;;;3.63;;
24483;SDS011;12643;51.620;7.548;2023-09-19T08:53:50;12.90;;;3.20;;
24483;SDS011;12643;51.620;7.548;2023-09-19T08:56:21;15.38;;;3.25;;
24483;SDS011;12643;51.620;7.548;2023-09-19T08:58:53;17.90;;;3.95;;
24483;SDS011;12643;51.620;7.548;2023-09-19T09:01:25;15.25;;;3.47;;
24483;SDS011;12643;51.620;7.548;2023-09-19T09:03:55;15.02;;;2.83;;
24483;SDS011;12643;51.620;7.548;2023-09-19T09:06:24;15.90;;;3.88;;
24483;SDS011;12643;51.620;7.548;2023-09-19T09:08:53;10.63;;;3.35;;
24483;SDS011;12643;51.620;7.548;2023-09-19T09:11:24;15.27;;;3.25;;
24483;SDS011;12643;51.620;7.548;2023-09-19T09:13:53;15.43;;;3.25;;
24483;SDS011;12643;51.620;7.548;2023-09-19T09:16:26;15.80;;;3.05;;
24483;SDS011;12643;51.620;7.548;2023-09-19T09:18:57;14.15;;;3.03;;
24483;SDS011;12643;51.620;7.548;2023-09-19T09:21:25;13.57;;;3.58;;
24483;SDS011;12643;51.620;7.548;2023-09-19T09:26:53;20.67;;;3.58;;
24483;SDS011;12643;51.620;7.548;2023-09-19T09:29:36;15.05;;;4.10;;
24483;SDS011;12643;51.620;7.548;2023-09-19T09:32:26;12.80;;;2.97;;
24483;SDS011;12643;51.620;7.548;2023-09-19T09:34:57;20.27;;;3.75;;
24483;SDS011;12643;51.620;7.548;2023-09-19T09:37:26;12.80;;;3.03;;
24483;SDS011;12643;51.620;7.548;2023-09-19T09:39:56;9.15;;;2.90;;
24483;SDS011;12643;51.620;7.548;2023-09-19T09:42:45;17.52;;;4.30;;
24483;SDS011;12643;51.620;7.548;2023-09-19T09:45:13;12.30;;;2.88;;
24483;SDS011;12643;51.620;7.548;2023-09-19T09:47:47;10.07;;;3.08;;
24483;SDS011;12643;51.620;7.548;2023-09-19T09:50:28;12.65;;;3.00;;
24483;SDS011;12643;51.620;7.548;2023-09-19T09:53:07;17.83;;;3.25;;
24483;SDS011;12643;51.620;7.548;2023-09-19T09:55:57;8.35;;;2.55;;
24483;SDS011;12643;51.620;7.548;2023-09-19T09:58:26;11.70;;;2.92;;
24483;SDS011;12643;51.620;7.548;2023-09-19T10:00:57;13.75;;;2.92;;
24483;SDS011;12643;51.620;7.548;2023-09-19T10:03:34;11.77;;;3.08;;
24483;SDS011;12643;51.620;7.548;2023-09-19T10:06:07;9.07;;;2.70;;
24483;SDS011;12643;51.620;7.548;2023-09-19T10:09:00;11.77;;;3.17;;
24483;SDS011;12643;51.620;7.548;2023-09-19T10:11:45;13.27;;;3.47;;
24483;SDS011;12643;51.620;7.548;2023-09-19T10:14:19;13.20;;;3.35;;
24483;SDS011;12643;51.620;7.548;2023-09-19T10:16:49;11.55;;;2.90;;
24483;SDS011;12643;51.620;7.548;2023-09-19T10:19:28;12.90;;;3.05;;
24483;SDS011;12643;51.620;7.548;2023-09-19T10:22:01;11.20;;;3.17;;
24483;SDS011;12643;51.620;7.548;2023-09-19T10:24:33;15.82;;;3.22;;
24483;SDS011;12643;51.620;7.548;2023-09-19T10:27:02;13.38;;;3.10;;
24483;SDS011;12643;51.620;7.548;2023-09-19T10:29:32;9.63;;;2.83;;
24483;SDS011;12643;51.620;7.548;2023-09-19T10:32:03;14.05;;;2.90;;
24483;SDS011;12643;51.620;7.548;2023-09-19T10:34:36;14.55;;;3.17;;
24483;SDS011;12643;51.620;7.548;2023-09-19T10:37:07;14.65;;;3.13;;
24483;SDS011;12643;51.620;7.548;2023-09-19T10:39:45;17.45;;;2.95;;
24483;SDS011;12643;51.620;7.548;2023-09-19T10:42:14;10.93;;;2.67;;
24483;SDS011;12643;51.620;7.548;2023-09-19T10:44:48;11.82;;;2.88;;
24483;SDS011;12643;51.620;7.548;2023-09-19T10:47:22;13.73;;;3.97;;
24483;SDS011;12643;51.620;7.548;2023-09-19T10:49:52;8.55;;;2.97;;
24483;SDS011;12643;51.620;7.548;2023-09-19T10:52:20;10.02;;;3.10;;
24483;SDS011;12643;51.620;7.548;2023-09-19T10:57:23;9.70;;;2.45;;
24483;SDS011;12643;51.620;7.548;2023-09-19T11:00:06;13.30;;;3.33;;
24483;SDS011;12643;51.620;7.548;2023-09-19T11:06:06;15.25;;;3.10;;
24483;SDS011;12643;51.620;7.548;2023-09-19T11:08:52;10.25;;;3.70;;
24483;SDS011;12643;51.620;7.548;2023-09-19T11:11:41;10.10;;;2.72;;
24483;SDS011;12643;51.620;7.548;2023-09-19T11:20:21;12.88;;;3.65;;
24483;SDS011;12643;51.620;7.548;2023-09-19T11:23:31;13.15;;;3.60;;
24483;SDS011;12643;51.620;7.548;2023-09-19T11:26:04;7.07;;;2.80;;
24483;SDS011;12643;51.620;7.548;2023-09-19T11:28:55;12.43;;;2.47;;
24483;SDS011;12643;51.620;7.548;2023-09-19T11:31:54;13.75;;;3.13;;
24483;SDS011;12643;51.620;7.548;2023-09-19T11:34:37;13.68;;;2.95;;
24483;SDS011;12643;51.620;7.548;2023-09-19T11:40:37;7.63;;;2.58;;
24483;SDS011;12643;51.620;7.548;2023-09-19T11:46:02;14.95;;;3.47;;
24483;SDS011;12643;51.620;7.548;2023-09-19T11:48:34;11.13;;;2.95;;
24483;SDS011;12643;51.620;7.548;2023-09-19T11:51:13;9.27;;;2.67;;
24483;SDS011;12643;51.620;7.548;2023-09-19T11:53:48;4.95;;;1.90;;
24483;SDS011;12643;51.620;7.548;2023-09-19T11:56:18;12.05;;;2.97;;
24483;SDS011;12643;51.620;7.548;2023-09-19T11:58:49;15.27;;;2.83;;
24483;SDS011;12643;51.620;7.548;2023-09-19T12:01:22;10.38;;;2.45;;
24483;SDS011;12643;51.620;7.548;2023-09-19T12:03:55;11.63;;;3.17;;
24483;SDS011;12643;51.620;7.548;2023-09-19T12:06:25;14.20;;;2.90;;
24483;SDS011;12643;51.620;7.548;2023-09-19T12:08:53;8.43;;;3.33;;
24483;SDS011;12643;51.620;7.548;2023-09-19T12:11:27;8.52;;;2.42;;
24483;SDS011;12643;51.620;7.548;2023-09-19T12:13:58;12.07;;;2.95;;
24483;SDS011;12643;51.620;7.548;2023-09-19T12:16:27;9.98;;;2.58;;
24483;SDS011;12643;51.620;7.548;2023-09-19T12:18:57;10.27;;;2.50;;
24483;SDS011;12643;51.620;7.548;2023-09-19T12:21:44;9.40;;;2.45;;
24483;SDS011;12643;51.620;7.548;2023-09-19T12:24:20;10.00;;;2.53;;
24483;SDS011;12643;51.620;7.548;2023-09-19T12:26:49;9.00;;;2.45;;
24483;SDS011;12643;51.620;7.548;2023-09-19T12:29:19;11.10;;;2.63;;
24483;SDS011;12643;51.620;7.548;2023-09-19T12:31:49;8.77;;;2.10;;
24483;SDS011;12643;51.620;7.548;2023-09-19T12:34:19;8.45;;;2.78;;
24483;SDS011;12643;51.620;7.548;2023-09-19T12:36:48;10.60;;;2.90;;
24483;SDS011;12643;51.620;7.548;2023-09-19T12:39:30;14.43;;;2.70;;
24483;SDS011;12643;51.620;7.548;2023-09-19T12:42:00;8.55;;;2.38;;
24483;SDS011;12643;51.620;7.548;2023-09-19T12:47:00;9.77;;;2.42;;
24483;SDS011;12643;51.620;7.548;2023-09-19T12:49:52;10.68;;;3.05;;
24483;SDS011;12643;51.620;7.548;2023-09-19T12:52:40;9.48;;;2.38;;
24483;SDS011;12643;51.620;7.548;2023-09-19T12:55:20;9.43;;;2.45;;
24483;SDS011;12643;51.620;7.548;2023-09-19T12:58:01;11.93;;;2.63;;
24483;SDS011;12643;51.620;7.548;2023-09-19T13:00:36;5.78;;;2.40;;
24483;SDS011;12643;51.620;7.548;2023-09-19T13:03:11;9.02;;;2.78;;
24483;SDS011;12643;51.620;7.548;2023-09-19T13:05:50;8.02;;;2.85;;
24483;SDS011;12643;51.620;7.548;2023-09-19T13:08:21;10.27;;;2.22;;
24483;SDS011;12643;51.620;7.548;2023-09-19T13:11:08;5.82;;;2.60;;
24483;SDS011;12643;51.620;7.548;2023-09-19T13:13:38;6.80;;;2.33;;
24483;SDS011;12643;51.620;7.548;2023-09-19T13:16:08;8.13;;;2.50;;
24483;SDS011;12643;51.620;7.548;2023-09-19T13:18:43;10.00;;;2.67;;
24483;SDS011;12643;51.620;7.548;2023-09-19T13:21:13;12.25;;;2.80;;
24483;SDS011;12643;51.620;7.548;2023-09-19T13:23:49;7.00;;;1.92;;
24483;SDS011;12643;51.620;7.548;2023-09-19T13:26:18;8.57;;;2.53;;
24483;SDS011;12643;51.620;7.548;2023-09-19T13:28:46;9.50;;;2.47;;
24483;SDS011;12643;51.620;7.548;2023-09-19T13:31:15;10.30;;;2.88;;
24483;SDS011;12643;51.620;7.548;2023-09-19T13:33:43;9.38;;;2.10;;
24483;SDS011;12643;51.620;7.548;2023-09-19T13:36:13;9.80;;;2.35;;
24483;SDS011;12643;51.620;7.548;2023-09-19T13:38:41;8.27;;;2.40;;
24483;SDS011;12643;51.620;7.548;2023-09-19T13:41:09;7.85;;;2.58;;
24483;SDS011;12643;51.620;7.548;2023-09-19T13:43:37;6.20;;;1.90;;
24483;SDS011;12643;51.620;7.548;2023-09-19T13:46:05;7.55;;;2.10;;
24483;SDS011;12643;51.620;7.548;2023-09-19T13:48:37;9.13;;;2.28;;
24483;SDS011;12643;51.620;7.548;2023-09-19T13:51:05;11.25;;;2.33;;
24483;SDS011;12643;51.620;7.548;2023-09-19T13:53:36;6.78;;;2.10;;
24483;SDS011;12643;51.620;7.548;2023-09-19T13:56:04;8.30;;;1.85;;
24483;SDS011;12643;51.620;7.548;2023-09-19T13:58:32;4.15;;;1.73;;
24483;SDS011;12643;51.620;7.548;2023-09-19T14:01:00;8.27;;;2.00;;
24483;SDS011;12643;51.620;7.548;2023-09-19T14:03:29;8.68;;;2.17;;
24483;SDS011;12643;51.620;7.548;2023-09-19T14:05:57;6.20;;;1.77;;
24483;SDS011;12643;51.620;7.548;2023-09-19T14:08:24;7.45;;;1.77;;
24483;SDS011;12643;51.620;7.548;2023-09-19T14:10:54;6.70;;;1.63;;
24483;SDS011;12643;51.620;7.548;2023-09-19T14:13:21;5.82;;;1.90;;
24483;SDS011;12643;51.620;7.548;2023-09-19T14:15:53;8.18;;;1.90;;
24483;SDS011;12643;51.620;7.548;2023-09-19T14:18:24;10.82;;;2.03;;
24483;SDS011;12643;51.620;7.548;2023-09-19T14:21:43;4.47;;;1.75;;
24483;SDS011;12643;51.620;7.548;2023-09-19T14:24:16;6.95;;;1.65;;
24483;SDS011;12643;51.620;7.548;2023-09-19T14:26:46;11.68;;;2.58;;
24483;SDS011;12643;51.620;7.548;2023-09-19T14:29:14;8.57;;;1.60;;
24483;SDS011;12643;51.620;7.548;2023-09-19T14:31:43;8.40;;;2.20;;
24483;SDS011;12643;51.620;7.548;2023-09-19T14:34:13;4.68;;;1.73;;
24483;SDS011;12643;51.620;7.548;2023-09-19T14:36:47;10.23;;;2.10;;
24483;SDS011;12643;51.620;7.548;2023-09-19T14:39:19;9.25;;;1.70;;
24483;SDS011;12643;51.620;7.548;2023-09-19T14:41:54;7.05;;;2.00;;
24483;SDS011;12643;51.620;7.548;2023-09-19T14:44:22;5.78;;;1.40;;
24483;SDS011;12643;51.620;7.548;2023-09-19T14:46:50;10.43;;;1.85;;
24483;SDS011;12643;51.620;7.548;2023-09-19T14:49:18;3.25;;;1.30;;
24483;SDS011;12643;51.620;7.548;2023-09-19T14:51:46;7.57;;;1.95;;
24483;SDS011;12643;51.620;7.548;2023-09-19T14:54:16;6.10;;;1.65;;
24483;SDS011;12643;51.620;7.548;2023-09-19T14:56:45;11.65;;;1.60;;
24483;SDS011;12643;51.620;7.548;2023-09-19T14:59:20;2.40;;;1.30;;
24483;SDS011;12643;51.620;7.548;2023-09-19T15:01:48;4.18;;;1.35;;
24483;SDS011;12643;51.620;7.548;2023-09-19T15:04:19;5.60;;;1.50;;
24483;SDS011;12643;51.620;7.548;2023-09-19T15:06:49;4.20;;;1.40;;
24483;SDS011;12643;51.620;7.548;2023-09-19T15:09:20;9.10;;;1.93;;
24483;SDS011;12643;51.620;7.548;2023-09-19T15:11:51;5.35;;;1.60;;
24483;SDS011;12643;51.620;7.548;2023-09-19T15:14:22;6.15;;;1.67;;
24483;SDS011;12643;51.620;7.548;2023-09-19T15:16:55;7.28;;;1.50;;
24483;SDS011;12643;51.620;7.548;2023-09-19T15:19:24;5.78;;;1.30;;
24483;SDS011;12643;51.620;7.548;2023-09-19T15:21:54;10.50;;;1.70;;
24483;SDS011;12643;51.620;7.548;2023-09-19T15:24:25;3.13;;;1.23;;
24483;SDS011;12643;51.620;7.548;2023-09-19T15:26:59;5.38;;;1.30;;